sensor_id;sensor_type;location;lat;lon;timestamp;pressure;altitude;pressure_sealevel;temperature;humidity
16806;BME280;8520;50.102;20.010;2023-04-01T00:00:53;96504.69;;;10.17;72.88
16806;BME280;8520;50.102;20.010;2023-04-01T00:03:23;96512.97;;;10.35;72.85
16806;BME280;8520;50.102;20.010;2023-04-01T00:05:52;96501.34;;;10.61;71.42
16806;BME280;8520;50.102;20.010;2023-04-01T00:08:22;96517.69;;;9.97;73.78
16806;BME280;8520;50.102;20.010;2023-04-01T00:10:50;96518.88;;;10.02;74.09
16806;BME280;8520;50.102;20.010;2023-04-01T00:13:19;96507.88;;;10.58;73.01
16806;BME280;8520;50.102;20.010;2023-04-01T00:15:48;96499.03;;;10.47;72.54
16806;BME280;8520;50.102;20.010;2023-04-01T00:18:16;96497.44;;;10.32;72.84
16806;BME280;8520;50.102;20.010;2023-04-01T00:20:45;96506.81;;;10.05;73.94
16806;BME280;8520;50.102;20.010;2023-04-01T00:23:14;96500.13;;;10.57;72.60
16806;BME280;8520;50.102;20.010;2023-04-01T00:25:44;96476.38;;;10.16;73.10
16806;BME280;8520;50.102;20.010;2023-04-01T00:28:15;96488.88;;;9.98;73.69
16806;BME280;8520;50.102;20.010;2023-04-01T00:30:43;96491.56;;;10.23;73.22
16806;BME280;8520;50.102;20.010;2023-04-01T00:33:11;96490.22;;;10.29;73.46
16806;BME280;8520;50.102;20.010;2023-04-01T00:35:39;96485.41;;;10.35;73.42
16806;BME280;8520;50.102;20.010;2023-04-01T00:38:08;96489.69;;;10.31;73.30
16806;BME280;8520;50.102;20.010;2023-04-01T00:40:39;96478.38;;;10.53;72.56
16806;BME280;8520;50.102;20.010;2023-04-01T00:43:14;96476.44;;;10.10;74.26
16806;BME280;8520;50.102;20.010;2023-04-01T00:45:45;96480.09;;;9.75;75.48
16806;BME280;8520;50.102;20.010;2023-04-01T00:48:17;96480.38;;;10.15;74.49
16806;BME280;8520;50.102;20.010;2023-04-01T00:50:50;96469.06;;;10.37;73.41
16806;BME280;8520;50.102;20.010;2023-04-01T00:53:19;96474.44;;;10.11;73.83
16806;BME280;8520;50.102;20.010;2023-04-01T00:55:50;96467.88;;;10.14;74.16
16806;BME280;8520;50.102;20.010;2023-04-01T00:58:24;96479.72;;;10.28;73.91
16806;BME280;8520;50.102;20.010;2023-04-01T01:00:54;96473.22;;;9.63;75.60
16806;BME280;8520;50.102;20.010;2023-04-01T01:03:23;96472.56;;;10.00;74.87
16806;BME280;8520;50.102;20.010;2023-04-01T01:06:19;96473.84;;;10.37;73.54
16806;BME280;8520;50.102;20.010;2023-04-01T01:09:01;96480.00;;;10.24;74.26
16806;BME280;8520;50.102;20.010;2023-04-01T01:11:37;96478.44;;;10.10;74.56
16806;BME280;8520;50.102;20.010;2023-04-01T01:14:19;96481.00;;;10.27;74.37
16806;BME280;8520;50.102;20.010;2023-04-01T01:16:54;96475.31;;;10.00;75.17
16806;BME280;8520;50.102;20.010;2023-04-01T01:22:36;96481.91;;;10.35;74.29
16806;BME280;8520;50.102;20.010;2023-04-01T01:25:16;96485.66;;;10.51;73.43
16806;BME280;8520;50.102;20.010;2023-04-01T01:27:54;96486.41;;;10.32;73.63
16806;BME280;8520;50.102;20.010;2023-04-01T01:30:39;96491.66;;;10.36;73.96
16806;BME280;8520;50.102;20.010;2023-04-01T01:33:41;96482.91;;;10.32;74.26
16806;BME280;8520;50.102;20.010;2023-04-01T01:36:16;96486.94;;;10.50;73.69
16806;BME280;8520;50.102;20.010;2023-04-01T01:38:47;96495.59;;;9.78;75.34
16806;BME280;8520;50.102;20.010;2023-04-01T01:41:17;96496.31;;;10.22;75.15
16806;BME280;8520;50.102;20.010;2023-04-01T01:43:48;96499.03;;;10.28;74.64
16806;BME280;8520;50.102;20.010;2023-04-01T01:46:20;96499.38;;;10.19;74.97
16806;BME280;8520;50.102;20.010;2023-04-01T01:48:51;96498.31;;;10.03;75.65
16806;BME280;8520;50.102;20.010;2023-04-01T01:51:21;96501.41;;;9.75;76.63
16806;BME280;8520;50.102;20.010;2023-04-01T01:53:50;96495.50;;;10.08;75.80
16806;BME280;8520;50.102;20.010;2023-04-01T01:56:22;96494.25;;;10.28;75.55
16806;BME280;8520;50.102;20.010;2023-04-01T01:58:52;96499.13;;;9.79;76.29
16806;BME280;8520;50.102;20.010;2023-04-01T02:01:24;96506.06;;;10.04;76.48
16806;BME280;8520;50.102;20.010;2023-04-01T02:03:58;96502.78;;;9.63;76.09
16806;BME280;8520;50.102;20.010;2023-04-01T02:06:32;96496.31;;;10.03;75.95
16806;BME280;8520;50.102;20.010;2023-04-01T02:09:04;96495.47;;;9.41;78.12
16806;BME280;8520;50.102;20.010;2023-04-01T02:11:36;96482.38;;;9.96;76.94
16806;BME280;8520;50.102;20.010;2023-04-01T02:14:09;96493.88;;;10.19;75.39
16806;BME280;8520;50.102;20.010;2023-04-01T02:16:40;96494.91;;;9.72;76.72
16806;BME280;8520;50.102;20.010;2023-04-01T02:19:11;96496.06;;;9.82;75.96
16806;BME280;8520;50.102;20.010;2023-04-01T02:21:43;96492.13;;;9.97;76.85
16806;BME280;8520;50.102;20.010;2023-04-01T02:24:13;96497.69;;;10.16;76.27
16806;BME280;8520;50.102;20.010;2023-04-01T02:26:43;96496.53;;;10.05;76.07
16806;BME280;8520;50.102;20.010;2023-04-01T02:29:13;96493.13;;;10.18;75.41
16806;BME280;8520;50.102;20.010;2023-04-01T02:31:42;96491.78;;;10.62;74.02
16806;BME280;8520;50.102;20.010;2023-04-01T02:34:11;96502.75;;;10.30;74.69
16806;BME280;8520;50.102;20.010;2023-04-01T02:36:39;96509.16;;;10.57;74.29
16806;BME280;8520;50.102;20.010;2023-04-01T02:39:09;96502.84;;;10.81;73.90
16806;BME280;8520;50.102;20.010;2023-04-01T02:41:41;96508.94;;;10.74;73.81
16806;BME280;8520;50.102;20.010;2023-04-01T02:44:10;96514.59;;;10.06;75.04
16806;BME280;8520;50.102;20.010;2023-04-01T02:46:39;96516.44;;;9.98;76.29
16806;BME280;8520;50.102;20.010;2023-04-01T02:49:07;96511.84;;;10.25;76.04
16806;BME280;8520;50.102;20.010;2023-04-01T02:51:35;96519.09;;;10.04;76.24
16806;BME280;8520;50.102;20.010;2023-04-01T02:54:04;96522.38;;;9.78;77.33
16806;BME280;8520;50.102;20.010;2023-04-01T02:56:33;96519.38;;;9.81;77.21
16806;BME280;8520;50.102;20.010;2023-04-01T02:59:01;96518.22;;;9.71;77.71
16806;BME280;8520;50.102;20.010;2023-04-01T03:01:29;96530.59;;;9.83;77.40
16806;BME280;8520;50.102;20.010;2023-04-01T03:03:58;96540.53;;;9.68;77.25
16806;BME280;8520;50.102;20.010;2023-04-01T03:06:26;96534.16;;;9.78;77.35
16806;BME280;8520;50.102;20.010;2023-04-01T03:08:54;96528.63;;;10.03;77.41
16806;BME280;8520;50.102;20.010;2023-04-01T03:11:22;96526.06;;;9.86;77.04
16806;BME280;8520;50.102;20.010;2023-04-01T03:13:53;96531.19;;;9.76;77.21
16806;BME280;8520;50.102;20.010;2023-04-01T03:16:23;96522.84;;;9.58;78.72
16806;BME280;8520;50.102;20.010;2023-04-01T03:18:51;96524.31;;;9.89;78.15
16806;BME280;8520;50.102;20.010;2023-04-01T03:21:22;96524.47;;;9.72;77.75
16806;BME280;8520;50.102;20.010;2023-04-01T03:23:51;96525.22;;;9.72;78.26
16806;BME280;8520;50.102;20.010;2023-04-01T03:26:19;96523.81;;;9.60;78.25
16806;BME280;8520;50.102;20.010;2023-04-01T03:28:48;96526.16;;;9.50;78.49
16806;BME280;8520;50.102;20.010;2023-04-01T03:31:17;96533.09;;;9.33;79.28
16806;BME280;8520;50.102;20.010;2023-04-01T03:33:52;96529.66;;;9.27;80.27
16806;BME280;8520;50.102;20.010;2023-04-01T03:36:21;96523.00;;;9.11;80.69
16806;BME280;8520;50.102;20.010;2023-04-01T03:38:50;96521.59;;;9.59;79.29
16806;BME280;8520;50.102;20.010;2023-04-01T03:41:24;96532.00;;;9.41;79.11
16806;BME280;8520;50.102;20.010;2023-04-01T03:43:53;96529.34;;;9.30;79.26
16806;BME280;8520;50.102;20.010;2023-04-01T03:46:23;96537.03;;;9.43;79.54
16806;BME280;8520;50.102;20.010;2023-04-01T03:48:51;96524.97;;;9.46;79.99
16806;BME280;8520;50.102;20.010;2023-04-01T03:51:19;96539.56;;;9.65;78.94
16806;BME280;8520;50.102;20.010;2023-04-01T03:53:48;96532.44;;;9.75;78.25
16806;BME280;8520;50.102;20.010;2023-04-01T03:56:16;96537.25;;;9.69;78.15
16806;BME280;8520;50.102;20.010;2023-04-01T03:58:45;96540.59;;;9.62;79.02
16806;BME280;8520;50.102;20.010;2023-04-01T04:01:15;96534.16;;;9.54;78.78
16806;BME280;8520;50.102;20.010;2023-04-01T04:03:45;96531.47;;;9.73;77.70
16806;BME280;8520;50.102;20.010;2023-04-01T04:06:14;96541.06;;;9.91;77.53
16806;BME280;8520;50.102;20.010;2023-04-01T04:08:42;96541.28;;;9.93;77.76
16806;BME280;8520;50.102;20.010;2023-04-01T04:11:11;96534.91;;;9.54;78.78
16806;BME280;8520;50.102;20.010;2023-04-01T04:13:42;96549.44;;;9.79;78.54
16806;BME280;8520;50.102;20.010;2023-04-01T04:16:10;96551.66;;;9.57;78.90
16806;BME280;8520;50.102;20.010;2023-04-01T04:18:44;96545.59;;;9.64;79.14
16806;BME280;8520;50.102;20.010;2023-04-01T04:21:14;96546.78;;;9.68;78.79
16806;BME280;8520;50.102;20.010;2023-04-01T04:23:42;96542.81;;;10.13;77.50
16806;BME280;8520;50.102;20.010;2023-04-01T04:26:14;96551.94;;;9.77;78.34
16806;BME280;8520;50.102;20.010;2023-04-01T04:28:48;96542.19;;;10.01;77.46
16806;BME280;8520;50.102;20.010;2023-04-01T04:31:18;96553.84;;;9.64;78.59
16806;BME280;8520;50.102;20.010;2023-04-01T04:33:50;96543.47;;;9.75;79.26
16806;BME280;8520;50.102;20.010;2023-04-01T04:36:19;96541.81;;;9.91;78.05
16806;BME280;8520;50.102;20.010;2023-04-01T04:38:49;96544.38;;;9.59;79.01
16806;BME280;8520;50.102;20.010;2023-04-01T04:41:19;96542.50;;;9.97;77.72
16806;BME280;8520;50.102;20.010;2023-04-01T04:43:51;96541.34;;;10.68;75.47
16806;BME280;8520;50.102;20.010;2023-04-01T04:46:19;96545.97;;;10.60;75.16
16806;BME280;8520;50.102;20.010;2023-04-01T04:48:57;96542.81;;;10.13;76.26
16806;BME280;8520;50.102;20.010;2023-04-01T04:51:25;96543.53;;;10.37;76.16
16806;BME280;8520;50.102;20.010;2023-04-01T04:53:54;96541.44;;;10.44;76.08
16806;BME280;8520;50.102;20.010;2023-04-01T04:56:32;96536.75;;;10.57;75.57
16806;BME280;8520;50.102;20.010;2023-04-01T04:59:06;96545.69;;;10.01;76.40
16806;BME280;8520;50.102;20.010;2023-04-01T05:01:49;96553.50;;;10.59;75.29
16806;BME280;8520;50.102;20.010;2023-04-01T05:04:18;96552.00;;;9.96;76.57
16806;BME280;8520;50.102;20.010;2023-04-01T05:06:47;96552.06;;;9.91;77.66
16806;BME280;8520;50.102;20.010;2023-04-01T05:09:16;96562.53;;;9.98;77.47
16806;BME280;8520;50.102;20.010;2023-04-01T05:11:44;96548.84;;;10.11;77.30
16806;BME280;8520;50.102;20.010;2023-04-01T05:14:13;96550.19;;;10.23;76.69
16806;BME280;8520;50.102;20.010;2023-04-01T05:16:46;96550.84;;;10.10;77.01
16806;BME280;8520;50.102;20.010;2023-04-01T05:19:17;96555.75;;;9.99;77.01
16806;BME280;8520;50.102;20.010;2023-04-01T05:21:46;96562.78;;;10.19;77.37
16806;BME280;8520;50.102;20.010;2023-04-01T05:24:15;96562.25;;;10.45;76.07
16806;BME280;8520;50.102;20.010;2023-04-01T05:26:44;96557.41;;;10.07;77.40
16806;BME280;8520;50.102;20.010;2023-04-01T05:29:12;96555.97;;;10.63;75.12
16806;BME280;8520;50.102;20.010;2023-04-01T05:31:41;96558.28;;;10.40;76.16
16806;BME280;8520;50.102;20.010;2023-04-01T05:34:09;96548.84;;;10.92;74.96
16806;BME280;8520;50.102;20.010;2023-04-01T05:36:38;96552.38;;;10.49;75.78
16806;BME280;8520;50.102;20.010;2023-04-01T05:39:08;96550.22;;;10.42;76.17
16806;BME280;8520;50.102;20.010;2023-04-01T05:41:37;96543.84;;;10.90;74.79
16806;BME280;8520;50.102;20.010;2023-04-01T05:44:07;96544.84;;;10.50;76.82
16806;BME280;8520;50.102;20.010;2023-04-01T05:46:40;96549.91;;;10.27;76.54
16806;BME280;8520;50.102;20.010;2023-04-01T05:49:29;96556.19;;;10.46;76.94
16806;BME280;8520;50.102;20.010;2023-04-01T05:51:58;96542.84;;;10.50;76.99
16806;BME280;8520;50.102;20.010;2023-04-01T05:54:27;96549.94;;;10.46;76.39
16806;BME280;8520;50.102;20.010;2023-04-01T05:56:55;96553.06;;;10.74;76.68
16806;BME280;8520;50.102;20.010;2023-04-01T05:59:24;96556.91;;;10.28;77.41
16806;BME280;8520;50.102;20.010;2023-04-01T06:01:52;96550.75;;;10.78;77.52
16806;BME280;8520;50.102;20.010;2023-04-01T06:04:20;96549.69;;;11.19;75.09
16806;BME280;8520;50.102;20.010;2023-04-01T06:06:49;96551.66;;;10.49;77.76
16806;BME280;8520;50.102;20.010;2023-04-01T06:09:24;96554.25;;;9.98;79.35
16806;BME280;8520;50.102;20.010;2023-04-01T06:12:08;96553.59;;;10.91;76.83
16806;BME280;8520;50.102;20.010;2023-04-01T06:14:58;96541.91;;;11.49;73.97
16806;BME280;8520;50.102;20.010;2023-04-01T06:17:41;96550.63;;;11.21;74.11
16806;BME280;8520;50.102;20.010;2023-04-01T06:20:20;96554.34;;;10.73;76.59
16806;BME280;8520;50.102;20.010;2023-04-01T06:23:14;96555.59;;;10.72;76.40
16806;BME280;8520;50.102;20.010;2023-04-01T06:26:01;96566.47;;;10.27;79.24
16806;BME280;8520;50.102;20.010;2023-04-01T06:31:56;96559.00;;;11.16;76.41
16806;BME280;8520;50.102;20.010;2023-04-01T06:34:45;96559.75;;;11.62;73.89
16806;BME280;8520;50.102;20.010;2023-04-01T06:37:26;96558.06;;;10.94;76.29
16806;BME280;8520;50.102;20.010;2023-04-01T06:40:11;96565.75;;;11.34;75.19
16806;BME280;8520;50.102;20.010;2023-04-01T06:42:56;96568.72;;;11.04;75.56
16806;BME280;8520;50.102;20.010;2023-04-01T06:45:52;96565.59;;;11.45;74.80
16806;BME280;8520;50.102;20.010;2023-04-01T06:49:17;96578.88;;;10.77;76.50
16806;BME280;8520;50.102;20.010;2023-04-01T06:52:12;96567.31;;;10.97;76.58
16806;BME280;8520;50.102;20.010;2023-04-01T06:55:09;96573.56;;;10.79;77.32
16806;BME280;8520;50.102;20.010;2023-04-01T06:58:13;96582.31;;;10.21;78.54
16806;BME280;8520;50.102;20.010;2023-04-01T07:00:46;96571.69;;;11.06;76.83
16806;BME280;8520;50.102;20.010;2023-04-01T07:03:20;96571.84;;;11.13;75.15
16806;BME280;8520;50.102;20.010;2023-04-01T07:05:49;96577.72;;;10.48;77.06
16806;BME280;8520;50.102;20.010;2023-04-01T07:08:22;96581.63;;;10.77;76.34
16806;BME280;8520;50.102;20.010;2023-04-01T07:10:54;96570.16;;;10.91;76.35
16806;BME280;8520;50.102;20.010;2023-04-01T07:13:47;96569.16;;;11.27;74.71
16806;BME280;8520;50.102;20.010;2023-04-01T07:16:21;96574.31;;;11.49;74.02
16806;BME280;8520;50.102;20.010;2023-04-01T07:18:54;96565.81;;;11.47;73.73
16806;BME280;8520;50.102;20.010;2023-04-01T07:21:37;96569.03;;;11.64;73.67
16806;BME280;8520;50.102;20.010;2023-04-01T07:24:21;96570.22;;;10.86;75.43
16806;BME280;8520;50.102;20.010;2023-04-01T07:27:01;96579.25;;;11.05;74.81
16806;BME280;8520;50.102;20.010;2023-04-01T07:29:35;96575.75;;;10.86;75.16
16806;BME280;8520;50.102;20.010;2023-04-01T07:32:12;96581.81;;;10.41;76.34
16806;BME280;8520;50.102;20.010;2023-04-01T07:34:52;96578.28;;;10.65;76.54
16806;BME280;8520;50.102;20.010;2023-04-01T07:37:28;96585.13;;;10.77;76.20
16806;BME280;8520;50.102;20.010;2023-04-01T07:40:07;96578.72;;;10.69;76.25
16806;BME280;8520;50.102;20.010;2023-04-01T07:42:52;96569.28;;;10.83;75.53
16806;BME280;8520;50.102;20.010;2023-04-01T07:45:30;96563.72;;;11.34;73.99
16806;BME280;8520;50.102;20.010;2023-04-01T07:48:09;96561.34;;;11.44;73.79
16806;BME280;8520;50.102;20.010;2023-04-01T07:50:44;96565.00;;;11.33;73.72
16806;BME280;8520;50.102;20.010;2023-04-01T07:53:23;96565.69;;;11.52;73.39
16806;BME280;8520;50.102;20.010;2023-04-01T07:56:05;96574.63;;;10.94;75.24
16806;BME280;8520;50.102;20.010;2023-04-01T07:58:48;96585.00;;;11.07;75.38
16806;BME280;8520;50.102;20.010;2023-04-01T08:01:50;96573.53;;;11.94;71.71
16806;BME280;8520;50.102;20.010;2023-04-01T08:04:30;96581.53;;;11.52;72.32
16806;BME280;8520;50.102;20.010;2023-04-01T08:07:08;96595.69;;;11.62;71.67
16806;BME280;8520;50.102;20.010;2023-04-01T08:09:51;96589.78;;;11.39;72.01
16806;BME280;8520;50.102;20.010;2023-04-01T08:12:49;96589.91;;;11.14;72.64
16806;BME280;8520;50.102;20.010;2023-04-01T08:15:57;96575.88;;;11.12;73.71
16806;BME280;8520;50.102;20.010;2023-04-01T08:18:44;96581.41;;;11.90;71.59
16806;BME280;8520;50.102;20.010;2023-04-01T08:21:20;96589.69;;;11.12;72.73
16806;BME280;8520;50.102;20.010;2023-04-01T08:23:51;96579.34;;;11.64;72.02
16806;BME280;8520;50.102;20.010;2023-04-01T08:26:28;96577.03;;;11.36;72.46
16806;BME280;8520;50.102;20.010;2023-04-01T08:29:01;96579.81;;;11.94;70.97
16806;BME280;8520;50.102;20.010;2023-04-01T08:31:35;96596.53;;;11.24;73.08
16806;BME280;8520;50.102;20.010;2023-04-01T08:34:12;96610.22;;;11.17;73.61
16806;BME280;8520;50.102;20.010;2023-04-01T08:36:45;96592.56;;;11.52;72.03
16806;BME280;8520;50.102;20.010;2023-04-01T08:39:18;96588.59;;;11.79;72.00
16806;BME280;8520;50.102;20.010;2023-04-01T08:42:17;96584.00;;;11.56;72.80
16806;BME280;8520;50.102;20.010;2023-04-01T08:45:21;96585.22;;;11.87;71.48
16806;BME280;8520;50.102;20.010;2023-04-01T08:54:08;96565.94;;;13.08;68.22
16806;BME280;8520;50.102;20.010;2023-04-01T08:56:50;96574.94;;;13.01;67.38
16806;BME280;8520;50.102;20.010;2023-04-01T08:59:31;96575.28;;;12.84;68.00
16806;BME280;8520;50.102;20.010;2023-04-01T09:02:36;96572.72;;;12.86;67.53
16806;BME280;8520;50.102;20.010;2023-04-01T09:05:39;96565.50;;;13.38;66.06
16806;BME280;8520;50.102;20.010;2023-04-01T09:08:25;96584.31;;;12.24;68.12
16806;BME280;8520;50.102;20.010;2023-04-01T09:11:17;96561.56;;;13.12;66.53
16806;BME280;8520;50.102;20.010;2023-04-01T09:14:47;96575.16;;;12.42;68.41
16806;BME280;8520;50.102;20.010;2023-04-01T09:17:51;96574.06;;;12.72;68.06
16806;BME280;8520;50.102;20.010;2023-04-01T09:20:44;96567.16;;;12.52;68.11
16806;BME280;8520;50.102;20.010;2023-04-01T09:23:29;96574.50;;;12.62;68.47
16806;BME280;8520;50.102;20.010;2023-04-01T09:26:12;96571.19;;;12.51;68.65
16806;BME280;8520;50.102;20.010;2023-04-01T09:28:53;96575.84;;;11.76;71.82
16806;BME280;8520;50.102;20.010;2023-04-01T09:31:40;96589.91;;;12.71;71.22
16806;BME280;8520;50.102;20.010;2023-04-01T09:34:50;96603.00;;;12.04;72.99
16806;BME280;8520;50.102;20.010;2023-04-01T09:37:34;96599.06;;;12.53;71.70
16806;BME280;8520;50.102;20.010;2023-04-01T09:40:15;96586.97;;;13.24;69.33
16806;BME280;8520;50.102;20.010;2023-04-01T09:43:12;96579.78;;;12.74;69.99
16806;BME280;8520;50.102;20.010;2023-04-01T09:45:49;96575.41;;;12.78;69.99
16806;BME280;8520;50.102;20.010;2023-04-01T09:48:40;96586.00;;;12.53;71.66
16806;BME280;8520;50.102;20.010;2023-04-01T09:51:24;96593.56;;;11.55;74.45
16806;BME280;8520;50.102;20.010;2023-04-01T09:54:04;96595.41;;;11.78;73.21
16806;BME280;8520;50.102;20.010;2023-04-01T10:03:20;96603.66;;;12.10;72.37
16806;BME280;8520;50.102;20.010;2023-04-01T10:09:54;96605.06;;;12.30;70.94
16806;BME280;8520;50.102;20.010;2023-04-01T10:15:54;96602.41;;;11.66;73.15
16806;BME280;8520;50.102;20.010;2023-04-01T10:18:56;96616.75;;;10.76;76.71
16806;BME280;8520;50.102;20.010;2023-04-01T10:21:50;96640.13;;;11.13;76.09
16806;BME280;8520;50.102;20.010;2023-04-01T10:24:48;96618.63;;;11.57;75.54
16806;BME280;8520;50.102;20.010;2023-04-01T10:31:15;96637.38;;;10.94;79.00
16806;BME280;8520;50.102;20.010;2023-04-01T10:36:53;96621.72;;;11.53;76.93
16806;BME280;8520;50.102;20.010;2023-04-01T10:39:46;96616.38;;;11.87;74.87
16806;BME280;8520;50.102;20.010;2023-04-01T10:43:19;96623.84;;;12.05;71.93
16806;BME280;8520;50.102;20.010;2023-04-01T10:46:26;96616.34;;;11.74;71.99
16806;BME280;8520;50.102;20.010;2023-04-01T10:49:15;96612.50;;;11.64;73.14
16806;BME280;8520;50.102;20.010;2023-04-01T10:52:13;96599.72;;;12.59;68.94
16806;BME280;8520;50.102;20.010;2023-04-01T10:55:25;96599.88;;;13.21;68.25
16806;BME280;8520;50.102;20.010;2023-04-01T10:58:41;96617.06;;;12.59;67.41
16806;BME280;8520;50.102;20.010;2023-04-01T11:09:08;96613.03;;;12.47;68.18
16806;BME280;8520;50.102;20.010;2023-04-01T11:15:34;96604.50;;;12.58;69.47
16806;BME280;8520;50.102;20.010;2023-04-01T11:24:55;96616.13;;;12.57;72.37
16806;BME280;8520;50.102;20.010;2023-04-01T11:31:11;96619.22;;;12.27;70.42
16806;BME280;8520;50.102;20.010;2023-04-01T11:33:50;96615.19;;;11.82;70.28
16806;BME280;8520;50.102;20.010;2023-04-01T11:36:33;96601.41;;;12.09;69.15
16806;BME280;8520;50.102;20.010;2023-04-01T11:39:20;96621.47;;;11.96;69.35
16806;BME280;8520;50.102;20.010;2023-04-01T11:42:12;96627.06;;;12.23;71.06
16806;BME280;8520;50.102;20.010;2023-04-01T11:45:15;96613.03;;;11.62;75.05
16806;BME280;8520;50.102;20.010;2023-04-01T11:47:58;96628.78;;;11.35;79.37
16806;BME280;8520;50.102;20.010;2023-04-01T11:50:40;96631.81;;;11.32;83.64
16806;BME280;8520;50.102;20.010;2023-04-01T11:53:31;96636.97;;;11.22;84.41
16806;BME280;8520;50.102;20.010;2023-04-01T11:56:16;96617.44;;;11.52;85.57
16806;BME280;8520;50.102;20.010;2023-04-01T11:59:13;96617.09;;;11.42;85.02
16806;BME280;8520;50.102;20.010;2023-04-01T12:01:54;96603.22;;;12.59;81.55
16806;BME280;8520;50.102;20.010;2023-04-01T12:04:46;96620.34;;;12.18;78.39
16806;BME280;8520;50.102;20.010;2023-04-01T12:07:27;96599.69;;;14.03;73.28
16806;BME280;8520;50.102;20.010;2023-04-01T12:10:11;96619.78;;;13.96;70.75
16806;BME280;8520;50.102;20.010;2023-04-01T12:12:49;96595.44;;;14.30;68.16
16806;BME280;8520;50.102;20.010;2023-04-01T12:15:36;96598.34;;;13.96;68.39
16806;BME280;8520;50.102;20.010;2023-04-01T12:18:16;96614.84;;;13.39;68.69
16806;BME280;8520;50.102;20.010;2023-04-01T12:20:50;96617.38;;;13.50;69.18
16806;BME280;8520;50.102;20.010;2023-04-01T12:23:34;96632.91;;;12.59;72.89
16806;BME280;8520;50.102;20.010;2023-04-01T12:26:21;96624.53;;;13.12;72.16
16806;BME280;8520;50.102;20.010;2023-04-01T12:29:11;96614.47;;;12.88;73.29
16806;BME280;8520;50.102;20.010;2023-04-01T12:31:52;96636.28;;;12.12;76.86
16806;BME280;8520;50.102;20.010;2023-04-01T12:34:36;96629.34;;;11.92;79.00
16806;BME280;8520;50.102;20.010;2023-04-01T12:37:13;96618.44;;;11.68;81.63
16806;BME280;8520;50.102;20.010;2023-04-01T12:40:02;96629.72;;;11.70;82.01
16806;BME280;8520;50.102;20.010;2023-04-01T12:42:44;96626.63;;;12.85;78.06
16806;BME280;8520;50.102;20.010;2023-04-01T12:45:33;96617.28;;;12.22;80.95
16806;BME280;8520;50.102;20.010;2023-04-01T12:48:22;96628.13;;;12.33;78.26
16806;BME280;8520;50.102;20.010;2023-04-01T12:54:35;96635.59;;;12.51;77.81
16806;BME280;8520;50.102;20.010;2023-04-01T12:57:26;96627.28;;;12.25;77.95
16806;BME280;8520;50.102;20.010;2023-04-01T13:00:11;96642.91;;;11.77;78.94
16806;BME280;8520;50.102;20.010;2023-04-01T13:02:52;96649.41;;;11.47;78.39
16806;BME280;8520;50.102;20.010;2023-04-01T13:05:42;96623.22;;;11.67;78.40
16806;BME280;8520;50.102;20.010;2023-04-01T13:08:28;96630.56;;;12.10;77.46
16806;BME280;8520;50.102;20.010;2023-04-01T13:11:09;96632.94;;;12.32;76.72
16806;BME280;8520;50.102;20.010;2023-04-01T13:14:04;96626.13;;;13.07;75.15
16806;BME280;8520;50.102;20.010;2023-04-01T13:16:58;96631.78;;;13.49;72.82
16806;BME280;8520;50.102;20.010;2023-04-01T13:19:35;96638.09;;;13.02;73.57
16806;BME280;8520;50.102;20.010;2023-04-01T13:22:19;96625.66;;;12.69;73.51
16806;BME280;8520;50.102;20.010;2023-04-01T13:24:51;96631.41;;;12.84;72.48
16806;BME280;8520;50.102;20.010;2023-04-01T13:27:30;96635.56;;;12.78;72.99
16806;BME280;8520;50.102;20.010;2023-04-01T13:30:18;96649.56;;;13.06;70.69
16806;BME280;8520;50.102;20.010;2023-04-01T13:32:55;96636.56;;;12.54;72.92
16806;BME280;8520;50.102;20.010;2023-04-01T13:35:36;96659.00;;;12.63;72.32
16806;BME280;8520;50.102;20.010;2023-04-01T13:38:32;96649.59;;;12.80;71.79
16806;BME280;8520;50.102;20.010;2023-04-01T13:41:14;96659.75;;;12.64;73.98
16806;BME280;8520;50.102;20.010;2023-04-01T13:43:49;96658.22;;;12.89;73.59
16806;BME280;8520;50.102;20.010;2023-04-01T13:46:33;96649.91;;;12.89;74.27
16806;BME280;8520;50.102;20.010;2023-04-01T13:55:31;96656.03;;;12.48;74.76
16806;BME280;8520;50.102;20.010;2023-04-01T13:58:23;96643.34;;;12.53;74.24
16806;BME280;8520;50.102;20.010;2023-04-01T14:01:06;96657.53;;;11.91;76.91
16806;BME280;8520;50.102;20.010;2023-04-01T14:03:50;96657.75;;;12.06;75.21
16806;BME280;8520;50.102;20.010;2023-04-01T14:06:31;96650.16;;;11.48;75.82
16806;BME280;8520;50.102;20.010;2023-04-01T14:09:20;96651.03;;;11.56;76.34
16806;BME280;8520;50.102;20.010;2023-04-01T14:11:56;96649.72;;;12.21;73.87
16806;BME280;8520;50.102;20.010;2023-04-01T14:14:40;96641.59;;;13.03;72.03
16806;BME280;8520;50.102;20.010;2023-04-01T14:17:36;96648.47;;;12.75;71.93
16806;BME280;8520;50.102;20.010;2023-04-01T14:20:24;96638.16;;;13.44;70.38
16806;BME280;8520;50.102;20.010;2023-04-01T14:23:09;96640.13;;;13.36;69.80
16806;BME280;8520;50.102;20.010;2023-04-01T14:28:57;96636.47;;;13.41;69.53
16806;BME280;8520;50.102;20.010;2023-04-01T14:31:50;96665.56;;;13.00;71.12
16806;BME280;8520;50.102;20.010;2023-04-01T14:34:32;96657.84;;;12.46;71.76
16806;BME280;8520;50.102;20.010;2023-04-01T14:37:15;96658.81;;;12.35;72.38
16806;BME280;8520;50.102;20.010;2023-04-01T14:42:59;96670.50;;;12.54;72.62
16806;BME280;8520;50.102;20.010;2023-04-01T14:45:53;96678.31;;;12.10;74.90
16806;BME280;8520;50.102;20.010;2023-04-01T14:48:30;96665.50;;;12.66;73.40
16806;BME280;8520;50.102;20.010;2023-04-01T14:51:08;96666.84;;;12.33;74.85
16806;BME280;8520;50.102;20.010;2023-04-01T14:53:41;96677.28;;;12.80;73.20
16806;BME280;8520;50.102;20.010;2023-04-01T14:56:12;96707.63;;;11.49;77.12
16806;BME280;8520;50.102;20.010;2023-04-01T14:59:00;96668.06;;;11.92;77.44
16806;BME280;8520;50.102;20.010;2023-04-01T15:01:40;96685.84;;;12.10;76.76
16806;BME280;8520;50.102;20.010;2023-04-01T15:04:29;96682.19;;;12.34;76.22
16806;BME280;8520;50.102;20.010;2023-04-01T15:07:21;96662.56;;;12.98;74.54
16806;BME280;8520;50.102;20.010;2023-04-01T15:09:57;96670.88;;;12.19;77.21
16806;BME280;8520;50.102;20.010;2023-04-01T15:12:37;96693.38;;;11.64;78.77
16806;BME280;8520;50.102;20.010;2023-04-01T15:15:22;96684.91;;;12.07;77.90